Terminal Aerodrome Forecast
Issued by NWS

Home | Current Version | Previous Version | Text Only | Print | Product List | Glossary On
Versions: 1 2 3 4 5 6 7 8 9 10 11 12 13 14 15 16 17 18 19 20 21 22 23
000
FTUS43 KMQT 202300
TAFCMX
TAF
KCMX 202323Z 2100/2124 32006KT P6SM FEW007 OVC013
     FM210200 03004KT 4SM BR SCT005 OVC012
     FM210500 09003KT 1/2SM FG OVC003
     FM211500 10006KT 6SM BR OVC008
     FM211700 10008KT P6SM BKN020
     FM211900 10008KT P6SM BKN035=

USA.gov is the U.S. government's official web portal to all federal, state and local government web resources and services.